Terminal Aerodrome Forecast
Issued by NWS

Home | Current Version | Previous Version | Text Only | Print | Product List | Glossary On
Versions: 1 2 3 4 5 6 7 8 9 10 11 12 13 14 15 16 17 18 19 20
000
FTUS43 KLSX 221100
TAFUIN
TAF
KUIN 221126Z 2212/2312 18010KT P6SM OVC015 WS015/21045KT
     FM221400 20009KT P6SM OVC020
     FM230600 17010KT 5SM -SHRA SCT009 OVC025=

USA.gov is the U.S. government's official web portal to all federal, state and local government web resources and services.